sensor_id;sensor_type;location;lat;lon;timestamp;P1;durP1;ratioP1;P2;durP2;ratioP2
76357;SDS011;65185;21.060;105.826;2023-04-03T00:01:02;62.47;;;38.80;;
76357;SDS011;65185;21.060;105.826;2023-04-03T00:03:29;59.58;;;38.20;;
76357;SDS011;65185;21.060;105.826;2023-04-03T00:05:56;64.50;;;41.38;;
76357;SDS011;65185;21.060;105.826;2023-04-03T00:08:23;63.97;;;39.42;;
76357;SDS011;65185;21.060;105.826;2023-04-03T00:10:50;59.72;;;37.45;;
76357;SDS011;65185;21.060;105.826;2023-04-03T00:13:16;65.15;;;40.97;;
76357;SDS011;65185;21.060;105.826;2023-04-03T00:15:43;69.13;;;41.05;;
76357;SDS011;65185;21.060;105.826;2023-04-03T00:18:10;72.93;;;43.38;;
76357;SDS011;65185;21.060;105.826;2023-04-03T00:20:37;64.93;;;41.15;;
76357;SDS011;65185;21.060;105.826;2023-04-03T00:23:04;67.53;;;41.53;;
76357;SDS011;65185;21.060;105.826;2023-04-03T00:25:31;65.28;;;40.58;;
76357;SDS011;65185;21.060;105.826;2023-04-03T00:27:58;66.45;;;41.75;;
76357;SDS011;65185;21.060;105.826;2023-04-03T00:30:25;64.25;;;40.70;;
76357;SDS011;65185;21.060;105.826;2023-04-03T00:32:52;67.22;;;39.95;;
76357;SDS011;65185;21.060;105.826;2023-04-03T00:35:20;61.17;;;38.10;;
76357;SDS011;65185;21.060;105.826;2023-04-03T00:37:47;54.40;;;37.97;;
76357;SDS011;65185;21.060;105.826;2023-04-03T00:40:17;59.28;;;38.53;;
76357;SDS011;65185;21.060;105.826;2023-04-03T00:42:44;57.60;;;38.88;;
76357;SDS011;65185;21.060;105.826;2023-04-03T00:47:54;57.65;;;38.38;;
76357;SDS011;65185;21.060;105.826;2023-04-03T00:50:21;60.67;;;41.03;;
76357;SDS011;65185;21.060;105.826;2023-04-03T00:52:49;65.85;;;41.10;;
76357;SDS011;65185;21.060;105.826;2023-04-03T00:55:16;62.78;;;41.10;;
76357;SDS011;65185;21.060;105.826;2023-04-03T00:57:43;70.65;;;42.28;;
76357;SDS011;65185;21.060;105.826;2023-04-03T01:00:13;65.90;;;41.78;;
76357;SDS011;65185;21.060;105.826;2023-04-03T01:02:42;67.97;;;42.80;;
76357;SDS011;65185;21.060;105.826;2023-04-03T01:05:10;69.75;;;42.60;;
76357;SDS011;65185;21.060;105.826;2023-04-03T01:07:37;69.90;;;44.63;;
76357;SDS011;65185;21.060;105.826;2023-04-03T01:10:07;69.10;;;44.28;;
76357;SDS011;65185;21.060;105.826;2023-04-03T01:12:37;72.30;;;44.95;;
76357;SDS011;65185;21.060;105.826;2023-04-03T01:17:36;76.93;;;46.17;;
76357;SDS011;65185;21.060;105.826;2023-04-03T01:20:14;79.80;;;46.10;;
76357;SDS011;65185;21.060;105.826;2023-04-03T01:25:41;76.95;;;47.03;;
76357;SDS011;65185;21.060;105.826;2023-04-03T01:28:11;88.07;;;49.05;;
76357;SDS011;65185;21.060;105.826;2023-04-03T01:30:52;83.18;;;49.00;;
76357;SDS011;65185;21.060;105.826;2023-04-03T01:33:19;85.53;;;50.45;;
76357;SDS011;65185;21.060;105.826;2023-04-03T01:35:46;84.43;;;47.92;;
76357;SDS011;65185;21.060;105.826;2023-04-03T01:38:13;88.68;;;49.55;;
76357;SDS011;65185;21.060;105.826;2023-04-03T01:40:40;83.70;;;48.17;;
76357;SDS011;65185;21.060;105.826;2023-04-03T01:43:07;85.90;;;48.72;;
76357;SDS011;65185;21.060;105.826;2023-04-03T01:45:34;87.15;;;50.28;;
76357;SDS011;65185;21.060;105.826;2023-04-03T01:48:00;88.88;;;51.90;;
76357;SDS011;65185;21.060;105.826;2023-04-03T01:50:28;87.78;;;50.85;;
76357;SDS011;65185;21.060;105.826;2023-04-03T01:52:54;87.60;;;52.15;;
76357;SDS011;65185;21.060;105.826;2023-04-03T01:55:21;84.50;;;50.58;;
76357;SDS011;65185;21.060;105.826;2023-04-03T01:57:48;90.47;;;50.38;;
76357;SDS011;65185;21.060;105.826;2023-04-03T02:00:15;87.20;;;50.72;;
76357;SDS011;65185;21.060;105.826;2023-04-03T02:02:42;83.43;;;51.40;;
76357;SDS011;65185;21.060;105.826;2023-04-03T02:05:09;77.25;;;47.25;;
76357;SDS011;65185;21.060;105.826;2023-04-03T02:07:35;88.03;;;51.10;;
76357;SDS011;65185;21.060;105.826;2023-04-03T02:10:02;86.63;;;49.67;;
76357;SDS011;65185;21.060;105.826;2023-04-03T02:12:29;86.82;;;51.97;;
76357;SDS011;65185;21.060;105.826;2023-04-03T02:14:56;85.93;;;50.28;;
76357;SDS011;65185;21.060;105.826;2023-04-03T02:17:22;86.82;;;50.58;;
76357;SDS011;65185;21.060;105.826;2023-04-03T02:19:49;84.07;;;48.83;;
76357;SDS011;65185;21.060;105.826;2023-04-03T02:22:16;84.03;;;49.58;;
76357;SDS011;65185;21.060;105.826;2023-04-03T02:24:43;85.18;;;49.05;;
76357;SDS011;65185;21.060;105.826;2023-04-03T02:27:10;81.63;;;49.13;;
76357;SDS011;65185;21.060;105.826;2023-04-03T02:29:37;88.72;;;49.65;;
76357;SDS011;65185;21.060;105.826;2023-04-03T02:32:04;82.82;;;47.33;;
76357;SDS011;65185;21.060;105.826;2023-04-03T02:34:31;81.55;;;48.70;;
76357;SDS011;65185;21.060;105.826;2023-04-03T02:36:58;78.28;;;48.08;;
76357;SDS011;65185;21.060;105.826;2023-04-03T02:39:24;78.63;;;47.53;;
76357;SDS011;65185;21.060;105.826;2023-04-03T02:41:51;80.75;;;47.78;;
76357;SDS011;65185;21.060;105.826;2023-04-03T02:44:18;83.55;;;49.63;;
76357;SDS011;65185;21.060;105.826;2023-04-03T02:46:45;80.95;;;48.63;;
76357;SDS011;65185;21.060;105.826;2023-04-03T02:49:11;78.75;;;46.53;;
76357;SDS011;65185;21.060;105.826;2023-04-03T02:51:38;75.38;;;47.30;;
76357;SDS011;65185;21.060;105.826;2023-04-03T02:54:05;81.78;;;48.58;;
76357;SDS011;65185;21.060;105.826;2023-04-03T02:56:32;73.85;;;44.75;;
76357;SDS011;65185;21.060;105.826;2023-04-03T02:58:58;78.88;;;47.35;;
76357;SDS011;65185;21.060;105.826;2023-04-03T03:01:25;77.72;;;46.35;;
76357;SDS011;65185;21.060;105.826;2023-04-03T03:03:57;77.03;;;47.78;;
76357;SDS011;65185;21.060;105.826;2023-04-03T03:06:25;75.43;;;47.17;;
76357;SDS011;65185;21.060;105.826;2023-04-03T03:08:52;83.15;;;47.70;;
76357;SDS011;65185;21.060;105.826;2023-04-03T03:11:19;76.35;;;48.35;;
76357;SDS011;65185;21.060;105.826;2023-04-03T03:13:49;79.90;;;48.58;;
76357;SDS011;65185;21.060;105.826;2023-04-03T03:16:19;78.72;;;48.00;;
76357;SDS011;65185;21.060;105.826;2023-04-03T03:18:46;76.90;;;47.83;;
76357;SDS011;65185;21.060;105.826;2023-04-03T03:21:13;86.90;;;51.08;;
76357;SDS011;65185;21.060;105.826;2023-04-03T03:23:40;84.45;;;50.42;;
76357;SDS011;65185;21.060;105.826;2023-04-03T03:26:07;81.05;;;49.15;;
76357;SDS011;65185;21.060;105.826;2023-04-03T03:28:36;80.45;;;49.47;;
76357;SDS011;65185;21.060;105.826;2023-04-03T03:31:04;79.13;;;48.97;;
76357;SDS011;65185;21.060;105.826;2023-04-03T03:33:31;78.15;;;49.97;;
76357;SDS011;65185;21.060;105.826;2023-04-03T03:35:58;82.22;;;50.80;;
76357;SDS011;65185;21.060;105.826;2023-04-03T03:38:25;83.93;;;51.70;;
76357;SDS011;65185;21.060;105.826;2023-04-03T03:40:52;87.05;;;53.20;;
76357;SDS011;65185;21.060;105.826;2023-04-03T03:43:19;87.38;;;56.00;;
76357;SDS011;65185;21.060;105.826;2023-04-03T03:45:49;94.85;;;57.90;;
76357;SDS011;65185;21.060;105.826;2023-04-03T03:48:18;86.97;;;55.15;;
76357;SDS011;65185;21.060;105.826;2023-04-03T03:50:46;86.78;;;52.80;;
76357;SDS011;65185;21.060;105.826;2023-04-03T03:53:13;85.20;;;54.70;;
76357;SDS011;65185;21.060;105.826;2023-04-03T03:55:40;78.40;;;52.00;;
76357;SDS011;65185;21.060;105.826;2023-04-03T03:58:07;89.30;;;55.45;;
76357;SDS011;65185;21.060;105.826;2023-04-03T04:00:34;82.55;;;51.88;;
76357;SDS011;65185;21.060;105.826;2023-04-03T04:03:01;82.53;;;53.35;;
76357;SDS011;65185;21.060;105.826;2023-04-03T04:05:28;89.55;;;53.95;;
76357;SDS011;65185;21.060;105.826;2023-04-03T04:07:55;83.85;;;52.53;;
76357;SDS011;65185;21.060;105.826;2023-04-03T04:10:22;84.07;;;53.25;;
76357;SDS011;65185;21.060;105.826;2023-04-03T04:12:49;76.45;;;50.15;;
76357;SDS011;65185;21.060;105.826;2023-04-03T04:15:17;86.15;;;53.50;;
76357;SDS011;65185;21.060;105.826;2023-04-03T04:17:48;80.93;;;50.45;;
76357;SDS011;65185;21.060;105.826;2023-04-03T04:20:15;90.65;;;54.20;;
76357;SDS011;65185;21.060;105.826;2023-04-03T04:22:41;89.20;;;52.95;;
76357;SDS011;65185;21.060;105.826;2023-04-03T04:25:08;79.35;;;48.17;;
76357;SDS011;65185;21.060;105.826;2023-04-03T04:27:35;74.57;;;44.92;;
76357;SDS011;65185;21.060;105.826;2023-04-03T04:30:03;75.57;;;48.25;;
76357;SDS011;65185;21.060;105.826;2023-04-03T04:32:30;82.13;;;50.40;;
76357;SDS011;65185;21.060;105.826;2023-04-03T04:34:57;78.90;;;47.90;;
76357;SDS011;65185;21.060;105.826;2023-04-03T04:37:24;83.85;;;49.47;;
76357;SDS011;65185;21.060;105.826;2023-04-03T04:39:51;74.75;;;46.95;;
76357;SDS011;65185;21.060;105.826;2023-04-03T04:42:18;84.45;;;51.92;;
76357;SDS011;65185;21.060;105.826;2023-04-03T04:44:45;77.03;;;48.67;;
76357;SDS011;65185;21.060;105.826;2023-04-03T04:47:12;80.22;;;51.05;;
76357;SDS011;65185;21.060;105.826;2023-04-03T04:49:38;79.18;;;50.60;;
76357;SDS011;65185;21.060;105.826;2023-04-03T04:52:05;89.25;;;54.60;;
76357;SDS011;65185;21.060;105.826;2023-04-03T04:54:32;82.50;;;50.08;;
76357;SDS011;65185;21.060;105.826;2023-04-03T04:56:59;84.68;;;53.58;;
76357;SDS011;65185;21.060;105.826;2023-04-03T04:59:28;88.68;;;56.55;;
76357;SDS011;65185;21.060;105.826;2023-04-03T05:01:58;84.88;;;51.58;;
76357;SDS011;65185;21.060;105.826;2023-04-03T05:04:25;83.25;;;51.80;;
76357;SDS011;65185;21.060;105.826;2023-04-03T05:06:51;87.05;;;54.65;;
76357;SDS011;65185;21.060;105.826;2023-04-03T05:09:18;88.28;;;53.78;;
76357;SDS011;65185;21.060;105.826;2023-04-03T05:11:45;93.03;;;56.17;;
76357;SDS011;65185;21.060;105.826;2023-04-03T05:14:12;88.88;;;54.10;;
76357;SDS011;65185;21.060;105.826;2023-04-03T05:16:39;88.38;;;54.45;;
76357;SDS011;65185;21.060;105.826;2023-04-03T05:19:06;92.63;;;57.58;;
76357;SDS011;65185;21.060;105.826;2023-04-03T05:21:33;90.65;;;55.95;;
76357;SDS011;65185;21.060;105.826;2023-04-03T05:24:00;90.50;;;57.50;;
76357;SDS011;65185;21.060;105.826;2023-04-03T05:26:29;92.82;;;55.35;;
76357;SDS011;65185;21.060;105.826;2023-04-03T05:28:56;91.57;;;54.67;;
76357;SDS011;65185;21.060;105.826;2023-04-03T05:31:23;83.85;;;54.45;;
76357;SDS011;65185;21.060;105.826;2023-04-03T05:33:50;81.72;;;53.53;;
76357;SDS011;65185;21.060;105.826;2023-04-03T05:36:17;88.43;;;53.55;;
76357;SDS011;65185;21.060;105.826;2023-04-03T05:38:44;90.40;;;56.85;;
76357;SDS011;65185;21.060;105.826;2023-04-03T05:41:11;85.10;;;53.80;;
76357;SDS011;65185;21.060;105.826;2023-04-03T05:43:38;87.55;;;56.75;;
76357;SDS011;65185;21.060;105.826;2023-04-03T05:46:12;91.82;;;57.03;;
76357;SDS011;65185;21.060;105.826;2023-04-03T05:48:40;85.53;;;55.35;;
76357;SDS011;65185;21.060;105.826;2023-04-03T05:51:09;86.68;;;55.15;;
76357;SDS011;65185;21.060;105.826;2023-04-03T05:53:44;85.85;;;54.72;;
76357;SDS011;65185;21.060;105.826;2023-04-03T05:56:13;84.70;;;53.33;;
76357;SDS011;65185;21.060;105.826;2023-04-03T05:58:40;84.57;;;54.70;;
76357;SDS011;65185;21.060;105.826;2023-04-03T06:01:07;90.90;;;56.65;;
76357;SDS011;65185;21.060;105.826;2023-04-03T06:03:34;90.38;;;58.33;;
76357;SDS011;65185;21.060;105.826;2023-04-03T06:06:02;95.07;;;59.78;;
76357;SDS011;65185;21.060;105.826;2023-04-03T06:08:30;89.03;;;58.97;;
76357;SDS011;65185;21.060;105.826;2023-04-03T06:10:58;86.40;;;59.35;;
76357;SDS011;65185;21.060;105.826;2023-04-03T06:13:25;89.95;;;59.22;;
76357;SDS011;65185;21.060;105.826;2023-04-03T06:15:52;87.22;;;57.65;;
76357;SDS011;65185;21.060;105.826;2023-04-03T06:18:23;86.60;;;57.67;;
76357;SDS011;65185;21.060;105.826;2023-04-03T06:20:49;85.07;;;55.35;;
76357;SDS011;65185;21.060;105.826;2023-04-03T06:23:16;87.93;;;59.30;;
76357;SDS011;65185;21.060;105.826;2023-04-03T06:25:43;90.70;;;60.47;;
76357;SDS011;65185;21.060;105.826;2023-04-03T06:28:09;87.28;;;56.92;;
76357;SDS011;65185;21.060;105.826;2023-04-03T06:30:36;82.00;;;55.53;;
76357;SDS011;65185;21.060;105.826;2023-04-03T06:33:02;85.68;;;57.80;;
76357;SDS011;65185;21.060;105.826;2023-04-03T06:35:29;88.90;;;59.35;;
76357;SDS011;65185;21.060;105.826;2023-04-03T06:37:56;85.90;;;56.75;;
76357;SDS011;65185;21.060;105.826;2023-04-03T06:40:24;90.35;;;58.75;;
76357;SDS011;65185;21.060;105.826;2023-04-03T06:42:51;89.53;;;60.60;;
76357;SDS011;65185;21.060;105.826;2023-04-03T06:45:18;85.13;;;58.08;;
76357;SDS011;65185;21.060;105.826;2023-04-03T06:47:45;83.75;;;53.10;;
76357;SDS011;65185;21.060;105.826;2023-04-03T06:50:11;86.70;;;58.33;;
76357;SDS011;65185;21.060;105.826;2023-04-03T06:52:40;86.45;;;55.72;;
76357;SDS011;65185;21.060;105.826;2023-04-03T06:55:07;91.50;;;59.88;;
76357;SDS011;65185;21.060;105.826;2023-04-03T06:57:34;90.20;;;57.38;;
76357;SDS011;65185;21.060;105.826;2023-04-03T07:00:02;79.68;;;52.78;;
76357;SDS011;65185;21.060;105.826;2023-04-03T07:02:29;68.63;;;47.53;;
76357;SDS011;65185;21.060;105.826;2023-04-03T07:04:56;70.93;;;47.10;;
76357;SDS011;65185;21.060;105.826;2023-04-03T07:07:22;66.10;;;43.47;;
76357;SDS011;65185;21.060;105.826;2023-04-03T07:09:49;62.55;;;42.10;;
76357;SDS011;65185;21.060;105.826;2023-04-03T07:12:16;59.80;;;43.40;;
76357;SDS011;65185;21.060;105.826;2023-04-03T07:14:42;63.20;;;42.92;;
76357;SDS011;65185;21.060;105.826;2023-04-03T07:17:09;67.88;;;44.05;;
76357;SDS011;65185;21.060;105.826;2023-04-03T07:19:35;71.90;;;43.65;;
76357;SDS011;65185;21.060;105.826;2023-04-03T07:22:02;62.45;;;42.42;;
76357;SDS011;65185;21.060;105.826;2023-04-03T07:24:28;71.82;;;44.58;;
76357;SDS011;65185;21.060;105.826;2023-04-03T07:26:55;70.70;;;46.72;;
76357;SDS011;65185;21.060;105.826;2023-04-03T07:29:21;67.57;;;44.78;;
76357;SDS011;65185;21.060;105.826;2023-04-03T07:31:48;63.97;;;40.97;;
76357;SDS011;65185;21.060;105.826;2023-04-03T07:34:14;65.47;;;43.30;;
76357;SDS011;65185;21.060;105.826;2023-04-03T07:36:41;65.65;;;41.03;;
76357;SDS011;65185;21.060;105.826;2023-04-03T07:39:07;62.95;;;40.28;;
76357;SDS011;65185;21.060;105.826;2023-04-03T07:41:34;61.00;;;40.58;;
76357;SDS011;65185;21.060;105.826;2023-04-03T07:44:00;64.05;;;41.88;;
76357;SDS011;65185;21.060;105.826;2023-04-03T07:46:27;58.20;;;38.00;;
76357;SDS011;65185;21.060;105.826;2023-04-03T07:48:54;59.45;;;36.40;;
76357;SDS011;65185;21.060;105.826;2023-04-03T07:51:20;57.08;;;36.00;;
76357;SDS011;65185;21.060;105.826;2023-04-03T07:53:47;55.00;;;36.33;;
76357;SDS011;65185;21.060;105.826;2023-04-03T07:56:13;59.20;;;35.58;;
76357;SDS011;65185;21.060;105.826;2023-04-03T08:02:15;53.50;;;31.80;;
76357;SDS011;65185;21.060;105.826;2023-04-03T08:04:42;53.08;;;32.95;;
76357;SDS011;65185;21.060;105.826;2023-04-03T08:07:09;45.13;;;28.60;;
76357;SDS011;65185;21.060;105.826;2023-04-03T08:09:35;44.92;;;28.83;;
76357;SDS011;65185;21.060;105.826;2023-04-03T08:12:02;53.35;;;30.80;;
76357;SDS011;65185;21.060;105.826;2023-04-03T08:14:30;54.15;;;30.73;;
76357;SDS011;65185;21.060;105.826;2023-04-03T08:16:59;46.80;;;29.10;;
76357;SDS011;65185;21.060;105.826;2023-04-03T08:19:26;47.67;;;29.92;;
76357;SDS011;65185;21.060;105.826;2023-04-03T08:21:56;54.03;;;30.63;;
76357;SDS011;65185;21.060;105.826;2023-04-03T08:24:24;49.63;;;30.52;;
76357;SDS011;65185;21.060;105.826;2023-04-03T08:26:51;47.50;;;30.42;;
76357;SDS011;65185;21.060;105.826;2023-04-03T08:29:17;60.47;;;31.67;;
76357;SDS011;65185;21.060;105.826;2023-04-03T08:34:14;57.42;;;31.75;;
76357;SDS011;65185;21.060;105.826;2023-04-03T08:36:41;45.70;;;29.70;;
76357;SDS011;65185;21.060;105.826;2023-04-03T08:39:08;44.67;;;28.35;;
76357;SDS011;65185;21.060;105.826;2023-04-03T08:49:14;46.95;;;29.08;;
76357;SDS011;65185;21.060;105.826;2023-04-03T08:51:52;53.47;;;29.42;;
76357;SDS011;65185;21.060;105.826;2023-04-03T08:54:30;46.92;;;29.52;;
76357;SDS011;65185;21.060;105.826;2023-04-03T08:57:33;42.90;;;28.70;;
76357;SDS011;65185;21.060;105.826;2023-04-03T09:02:44;43.92;;;29.10;;
76357;SDS011;65185;21.060;105.826;2023-04-03T09:05:33;45.97;;;29.55;;
76357;SDS011;65185;21.060;105.826;2023-04-03T09:11:00;53.85;;;29.10;;
76357;SDS011;65185;21.060;105.826;2023-04-03T09:16:18;42.65;;;27.67;;
76357;SDS011;65185;21.060;105.826;2023-04-03T09:21:50;49.05;;;28.77;;
76357;SDS011;65185;21.060;105.826;2023-04-03T09:24:17;48.22;;;29.42;;
76357;SDS011;65185;21.060;105.826;2023-04-03T09:26:48;48.55;;;30.90;;
76357;SDS011;65185;21.060;105.826;2023-04-03T09:29:25;47.58;;;29.95;;
76357;SDS011;65185;21.060;105.826;2023-04-03T09:32:02;48.17;;;29.13;;
76357;SDS011;65185;21.060;105.826;2023-04-03T09:34:53;43.05;;;29.25;;
76357;SDS011;65185;21.060;105.826;2023-04-03T09:37:37;52.30;;;31.10;;
76357;SDS011;65185;21.060;105.826;2023-04-03T09:40:04;50.35;;;30.25;;
76357;SDS011;65185;21.060;105.826;2023-04-03T09:42:31;53.97;;;31.13;;
76357;SDS011;65185;21.060;105.826;2023-04-03T09:45:04;49.92;;;31.67;;
76357;SDS011;65185;21.060;105.826;2023-04-03T09:47:35;48.33;;;31.77;;
76357;SDS011;65185;21.060;105.826;2023-04-03T09:52:49;53.08;;;30.48;;
76357;SDS011;65185;21.060;105.826;2023-04-03T09:55:18;46.25;;;30.08;;
76357;SDS011;65185;21.060;105.826;2023-04-03T09:57:52;45.10;;;28.33;;
76357;SDS011;65185;21.060;105.826;2023-04-03T10:00:25;46.97;;;27.70;;
76357;SDS011;65185;21.060;105.826;2023-04-03T10:02:56;43.50;;;26.88;;
76357;SDS011;65185;21.060;105.826;2023-04-03T10:05:34;44.88;;;26.70;;
76357;SDS011;65185;21.060;105.826;2023-04-03T10:08:08;44.55;;;27.70;;
76357;SDS011;65185;21.060;105.826;2023-04-03T10:10:37;50.00;;;28.65;;
76357;SDS011;65185;21.060;105.826;2023-04-03T10:13:06;41.53;;;27.15;;
76357;SDS011;65185;21.060;105.826;2023-04-03T10:15:40;50.28;;;28.70;;
76357;SDS011;65185;21.060;105.826;2023-04-03T10:18:18;53.45;;;30.75;;
76357;SDS011;65185;21.060;105.826;2023-04-03T10:21:14;51.08;;;30.92;;
76357;SDS011;65185;21.060;105.826;2023-04-03T10:32:25;56.97;;;31.15;;
76357;SDS011;65185;21.060;105.826;2023-04-03T10:45:46;51.25;;;32.65;;
76357;SDS011;65185;21.060;105.826;2023-04-03T10:56:35;54.92;;;32.72;;
76357;SDS011;65185;21.060;105.826;2023-04-03T10:59:16;53.78;;;33.85;;
76357;SDS011;65185;21.060;105.826;2023-04-03T11:01:56;58.53;;;34.60;;
76357;SDS011;65185;21.060;105.826;2023-04-03T11:04:28;49.42;;;34.08;;
76357;SDS011;65185;21.060;105.826;2023-04-03T11:07:02;58.42;;;34.75;;
76357;SDS011;65185;21.060;105.826;2023-04-03T11:09:43;60.20;;;35.97;;
76357;SDS011;65185;21.060;105.826;2023-04-03T11:12:13;63.97;;;36.65;;
76357;SDS011;65185;21.060;105.826;2023-04-03T11:14:44;60.33;;;36.55;;
76357;SDS011;65185;21.060;105.826;2023-04-03T11:19:45;65.57;;;37.13;;
76357;SDS011;65185;21.060;105.826;2023-04-03T11:25:14;51.50;;;35.72;;
76357;SDS011;65185;21.060;105.826;2023-04-03T11:36:28;58.72;;;35.97;;
76357;SDS011;65185;21.060;105.826;2023-04-03T11:39:06;57.75;;;36.35;;
76357;SDS011;65185;21.060;105.826;2023-04-03T11:41:47;61.83;;;37.95;;
76357;SDS011;65185;21.060;105.826;2023-04-03T11:44:35;69.20;;;40.10;;
76357;SDS011;65185;21.060;105.826;2023-04-03T11:47:06;61.13;;;37.33;;
76357;SDS011;65185;21.060;105.826;2023-04-03T11:50:16;60.40;;;38.33;;
76357;SDS011;65185;21.060;105.826;2023-04-03T12:00:46;67.80;;;40.20;;
76357;SDS011;65185;21.060;105.826;2023-04-03T12:16:26;61.90;;;37.78;;
76357;SDS011;65185;21.060;105.826;2023-04-03T12:18:56;65.20;;;39.40;;
76357;SDS011;65185;21.060;105.826;2023-04-03T12:40:39;69.20;;;40.15;;
76357;SDS011;65185;21.060;105.826;2023-04-03T12:43:34;69.28;;;40.45;;
76357;SDS011;65185;21.060;105.826;2023-04-03T12:46:18;69.50;;;39.95;;
76357;SDS011;65185;21.060;105.826;2023-04-03T12:48:59;71.18;;;42.17;;
76357;SDS011;65185;21.060;105.826;2023-04-03T12:53:58;69.13;;;38.70;;
76357;SDS011;65185;21.060;105.826;2023-04-03T12:56:39;66.53;;;39.53;;
76357;SDS011;65185;21.060;105.826;2023-04-03T13:01:56;62.60;;;36.47;;
76357;SDS011;65185;21.060;105.826;2023-04-03T13:04:25;62.28;;;37.47;;
76357;SDS011;65185;21.060;105.826;2023-04-03T13:06:53;63.95;;;37.13;;
76357;SDS011;65185;21.060;105.826;2023-04-03T13:09:24;64.78;;;37.53;;
76357;SDS011;65185;21.060;105.826;2023-04-03T13:11:59;66.28;;;38.20;;
76357;SDS011;65185;21.060;105.826;2023-04-03T13:14:34;64.38;;;36.67;;
76357;SDS011;65185;21.060;105.826;2023-04-03T13:17:12;57.97;;;36.85;;
76357;SDS011;65185;21.060;105.826;2023-04-03T13:19:42;61.72;;;36.75;;
76357;SDS011;65185;21.060;105.826;2023-04-03T13:24:52;68.95;;;37.38;;
76357;SDS011;65185;21.060;105.826;2023-04-03T13:27:20;65.30;;;37.20;;
76357;SDS011;65185;21.060;105.826;2023-04-03T13:29:51;62.30;;;36.15;;
76357;SDS011;65185;21.060;105.826;2023-04-03T13:32:23;67.80;;;37.10;;
76357;SDS011;65185;21.060;105.826;2023-04-03T13:34:52;63.60;;;37.13;;
76357;SDS011;65185;21.060;105.826;2023-04-03T13:39:57;57.13;;;36.53;;
76357;SDS011;65185;21.060;105.826;2023-04-03T13:42:38;66.80;;;36.75;;
76357;SDS011;65185;21.060;105.826;2023-04-03T13:47:52;59.03;;;34.30;;
76357;SDS011;65185;21.060;105.826;2023-04-03T13:53:18;64.05;;;33.80;;
76357;SDS011;65185;21.060;105.826;2023-04-03T13:56:19;64.75;;;35.38;;
76357;SDS011;65185;21.060;105.826;2023-04-03T13:59:37;58.38;;;34.25;;
76357;SDS011;65185;21.060;105.826;2023-04-03T14:01:43;62.35;;;35.28;;
76357;SDS011;65185;21.060;105.826;2023-04-03T14:04:12;60.03;;;35.53;;
76357;SDS011;65185;21.060;105.826;2023-04-03T14:06:42;63.13;;;36.42;;
76357;SDS011;65185;21.060;105.826;2023-04-03T14:09:09;58.60;;;36.33;;
76357;SDS011;65185;21.060;105.826;2023-04-03T14:11:35;61.85;;;34.13;;
76357;SDS011;65185;21.060;105.826;2023-04-03T14:14:05;63.38;;;36.05;;
76357;SDS011;65185;21.060;105.826;2023-04-03T14:16:39;56.70;;;33.22;;
76357;SDS011;65185;21.060;105.826;2023-04-03T14:19:09;58.58;;;33.63;;
76357;SDS011;65185;21.060;105.826;2023-04-03T14:21:44;56.63;;;34.47;;
76357;SDS011;65185;21.060;105.826;2023-04-03T14:24:11;65.05;;;36.08;;
76357;SDS011;65185;21.060;105.826;2023-04-03T14:26:37;59.58;;;35.15;;
76357;SDS011;65185;21.060;105.826;2023-04-03T14:29:04;66.03;;;36.20;;
76357;SDS011;65185;21.060;105.826;2023-04-03T14:31:31;61.88;;;35.60;;
76357;SDS011;65185;21.060;105.826;2023-04-03T14:33:57;63.78;;;34.45;;
76357;SDS011;65185;21.060;105.826;2023-04-03T14:36:25;59.03;;;34.30;;
76357;SDS011;65185;21.060;105.826;2023-04-03T14:38:53;61.25;;;35.42;;
76357;SDS011;65185;21.060;105.826;2023-04-03T14:41:21;59.38;;;35.30;;
76357;SDS011;65185;21.060;105.826;2023-04-03T14:43:53;60.58;;;35.28;;
76357;SDS011;65185;21.060;105.826;2023-04-03T14:46:33;65.22;;;36.53;;
76357;SDS011;65185;21.060;105.826;2023-04-03T14:49:02;67.90;;;36.60;;
76357;SDS011;65185;21.060;105.826;2023-04-03T14:51:33;58.90;;;34.90;;
76357;SDS011;65185;21.060;105.826;2023-04-03T14:54:00;53.88;;;34.30;;
76357;SDS011;65185;21.060;105.826;2023-04-03T14:56:28;63.67;;;35.38;;
76357;SDS011;65185;21.060;105.826;2023-04-03T14:58:58;53.75;;;33.58;;
76357;SDS011;65185;21.060;105.826;2023-04-03T15:01:27;58.67;;;34.15;;
76357;SDS011;65185;21.060;105.826;2023-04-03T15:03:54;61.72;;;35.30;;
76357;SDS011;65185;21.060;105.826;2023-04-03T15:06:20;56.83;;;34.28;;
76357;SDS011;65185;21.060;105.826;2023-04-03T15:08:47;54.33;;;31.80;;
76357;SDS011;65185;21.060;105.826;2023-04-03T15:11:14;57.25;;;33.10;;
76357;SDS011;65185;21.060;105.826;2023-04-03T15:13:41;64.47;;;33.75;;
76357;SDS011;65185;21.060;105.826;2023-04-03T15:16:25;56.30;;;33.35;;
76357;SDS011;65185;21.060;105.826;2023-04-03T15:18:53;60.25;;;32.60;;
76357;SDS011;65185;21.060;105.826;2023-04-03T15:21:20;54.83;;;31.77;;
76357;SDS011;65185;21.060;105.826;2023-04-03T15:23:46;55.42;;;32.53;;
76357;SDS011;65185;21.060;105.826;2023-04-03T15:26:13;62.65;;;33.92;;
76357;SDS011;65185;21.060;105.826;2023-04-03T15:28:40;54.08;;;30.95;;
76357;SDS011;65185;21.060;105.826;2023-04-03T15:31:08;55.10;;;31.08;;
76357;SDS011;65185;21.060;105.826;2023-04-03T15:33:35;62.65;;;32.15;;
76357;SDS011;65185;21.060;105.826;2023-04-03T15:36:02;52.05;;;31.73;;
76357;SDS011;65185;21.060;105.826;2023-04-03T15:38:30;58.13;;;31.88;;
76357;SDS011;65185;21.060;105.826;2023-04-03T15:40:56;61.15;;;33.60;;
76357;SDS011;65185;21.060;105.826;2023-04-03T15:43:23;62.55;;;32.88;;
76357;SDS011;65185;21.060;105.826;2023-04-03T15:45:50;56.75;;;32.60;;
76357;SDS011;65185;21.060;105.826;2023-04-03T15:48:17;53.95;;;30.77;;
76357;SDS011;65185;21.060;105.826;2023-04-03T15:50:44;54.15;;;30.38;;
76357;SDS011;65185;21.060;105.826;2023-04-03T15:53:10;62.05;;;34.53;;
76357;SDS011;65185;21.060;105.826;2023-04-03T15:55:37;54.42;;;30.98;;
76357;SDS011;65185;21.060;105.826;2023-04-03T15:58:04;55.50;;;31.42;;
76357;SDS011;65185;21.060;105.826;2023-04-03T16:00:31;63.45;;;32.95;;
76357;SDS011;65185;21.060;105.826;2023-04-03T16:03:04;62.42;;;33.50;;
76357;SDS011;65185;21.060;105.826;2023-04-03T16:05:35;55.65;;;32.45;;
76357;SDS011;65185;21.060;105.826;2023-04-03T16:08:03;64.18;;;34.97;;
76357;SDS011;65185;21.060;105.826;2023-04-03T16:10:30;64.30;;;35.42;;
76357;SDS011;65185;21.060;105.826;2023-04-03T16:12:57;62.85;;;36.60;;
76357;SDS011;65185;21.060;105.826;2023-04-03T16:15:27;60.47;;;34.83;;
76357;SDS011;65185;21.060;105.826;2023-04-03T16:17:56;63.10;;;34.90;;
76357;SDS011;65185;21.060;105.826;2023-04-03T16:20:24;69.00;;;36.00;;
76357;SDS011;65185;21.060;105.826;2023-04-03T16:22:51;64.25;;;36.38;;